»·PEaware :: N512MM KSEA-KBOI

N512MM :: KSEA-KBOI

FLIGHT INFORMATION

Flight Status: Arrived
Operator: Privately registered:
United States
More flights under this callsign
Pilot: Kyle S. (17492)
Aircraft: Unknown
(E50P)
More flights by this aircraft type
Origin: KSEA Seattle-Tacoma Intl
United States
Destination: KBOI Boise Air Terminal/Gowen
United States
More flights between these airports :: More routes between these airports
Route: +SUMMA1 SUMMA J54 BKE DEVLE KYAAN3
File this flight plan on PilotEdge
Remarks: PBN / D2 DOF / 171209 REG / N512MM EET / KZLC0053 RMK / TCAS SIMBRIEF
Altitude:
(Current/Filed)
38,000ft
Speed:
(Current/Filed)
390kts
Departed: 09-Dec-17 03:08 PM
Arrived: 09-Dec-17 04:12 PM
Distance/Time
Traveled:
346nm/1:04
Distance/Time
To Go:
Arrived

Flight Plot

Page will automatically refresh every two minutes.

Flight plan parsing failed; only flown route is shown


Map Options




Map Legend


Flown Route
Filed Route
Departure Airport
Arrival Airport
Navaid (VOR, NDB)
Fix

Horizontal Profiles

Position Reports

Time Latitude Longitude Heading Altitude Ground
Speed
09-Dec-17 14:33 47.436550 -122.303368 245 360ft 0kts
09-Dec-17 14:34 47.436550 -122.303368 245 360ft 0kts
09-Dec-17 14:35 47.436550 -122.303368 245 360ft 0kts
09-Dec-17 14:36 47.436550 -122.303368 245 360ft 0kts
09-Dec-17 14:37 47.436550 -122.303368 245 360ft 0kts
09-Dec-17 14:38 47.436550 -122.303368 245 360ft 0kts
09-Dec-17 14:39 47.436550 -122.303368 245 360ft 0kts
09-Dec-17 14:40 47.436550 -122.303368 245 360ft 0kts
09-Dec-17 14:41 47.436550 -122.303368 245 360ft 0kts
09-Dec-17 14:42 47.436550 -122.303368 245 360ft 0kts
09-Dec-17 14:43 47.436550 -122.303368 245 360ft 0kts
09-Dec-17 14:44 47.436550 -122.303368 245 360ft 0kts
09-Dec-17 14:45 47.436550 -122.303368 245 360ft 0kts
09-Dec-17 14:46 47.436550 -122.303368 245 360ft 0kts
09-Dec-17 14:47 47.436550 -122.303368 245 360ft 0kts
09-Dec-17 14:48 47.436550 -122.303368 245 360ft 0kts
09-Dec-17 14:49 47.436550 -122.303368 245 360ft 0kts
09-Dec-17 14:50 47.436550 -122.303368 245 360ft 0kts
09-Dec-17 14:51 47.436550 -122.303368 245 360ft 0kts
09-Dec-17 14:52 47.436550 -122.303368 245 360ft 0kts
09-Dec-17 14:53 47.436550 -122.303368 245 360ft 0kts
09-Dec-17 14:54 47.436550 -122.303368 245 360ft 0kts
09-Dec-17 14:55 47.436550 -122.303368 245 360ft 0kts
09-Dec-17 14:56 47.436550 -122.303368 245 360ft 0kts
09-Dec-17 14:57 47.436550 -122.303368 245 360ft 0kts
09-Dec-17 14:58 47.436550 -122.303368 245 360ft 0kts
09-Dec-17 14:59 47.436744 -122.302774 245 361ft 0kts
09-Dec-17 15:00 47.436744 -122.302774 245 361ft 0kts
09-Dec-17 15:01 47.436817 -122.304002 275 362ft 9kts
09-Dec-17 15:02 47.437064 -122.306345 326 361ft 5kts
09-Dec-17 15:03 47.438811 -122.306384 0 369ft 15kts
09-Dec-17 15:04 47.443622 -122.306332 0 386ft 19kts
09-Dec-17 15:05 47.449547 -122.306278 0 405ft 22kts
09-Dec-17 15:06 47.455450 -122.306197 1 433ft 20kts
09-Dec-17 15:07 47.460797 -122.306167 3 436ft 11kts
09-Dec-17 15:08 47.463655 -122.306318 308 416ft 0kts
09-Dec-17 15:09 47.463663 -122.306333 308 415ft 0kts
09-Dec-17 15:10 47.463663 -122.306333 308 415ft 0kts
09-Dec-17 15:11 47.463663 -122.306333 308 415ft 0kts
09-Dec-17 15:12 47.463371 -122.307754 181 408ft 0kts
09-Dec-17 15:13 47.442175 -122.307831 180 1033ft 178kts
09-Dec-17 15:14 47.376109 -122.306410 179 6241ft 253kts
09-Dec-17 15:15 47.300330 -122.301155 179 9526ft 291kts
09-Dec-17 15:16 47.221233 -122.288656 170 12860ft 300kts
09-Dec-17 15:17 47.140546 -122.252256 165 15439ft 316kts
09-Dec-17 15:18 47.057573 -122.210220 164 17616ft 327kts
09-Dec-17 15:19 46.972694 -122.167116 164 19451ft 337kts
09-Dec-17 15:20 46.891109 -122.125737 163 20909ft 345kts
09-Dec-17 15:21 46.801669 -122.080453 163 22240ft 353kts
09-Dec-17 15:22 46.709353 -122.033950 163 23379ft 360kts
09-Dec-17 15:23 46.619403 -121.973399 135 24334ft 374kts
09-Dec-17 15:24 46.561587 -121.846183 122 25150ft 383kts
09-Dec-17 15:26 46.508316 -121.712205 122 25847ft 388kts
09-Dec-17 15:27 46.455941 -121.580655 122 27010ft 381kts
09-Dec-17 15:28 46.408403 -121.461773 122 29666ft 340kts
09-Dec-17 15:29 46.361759 -121.345746 123 30784ft 347kts
09-Dec-17 15:30 46.314228 -121.227945 122 31750ft 354kts
09-Dec-17 15:31 46.264527 -121.105362 122 32598ft 361kts
09-Dec-17 15:32 46.213837 -120.980849 122 33372ft 367kts
09-Dec-17 15:33 46.163098 -120.856678 122 34088ft 372kts
09-Dec-17 15:34 46.110539 -120.728700 122 34758ft 376kts
09-Dec-17 15:35 46.057458 -120.600065 122 35354ft 380kts
09-Dec-17 15:36 46.003642 -120.470251 122 35901ft 383kts
09-Dec-17 15:37 45.950256 -120.342095 122 36374ft 387kts
09-Dec-17 15:38 45.896933 -120.214674 122 36758ft 390kts
09-Dec-17 15:39 45.841976 -120.083947 122 36994ft 396kts
09-Dec-17 15:40 45.784698 -119.948343 122 37003ft 404kts
09-Dec-17 15:41 45.724069 -119.805554 122 37006ft 445kts
09-Dec-17 15:42 45.658515 -119.651904 122 37071ft 469kts
09-Dec-17 15:43 45.591726 -119.496214 122 37071ft 480kts
09-Dec-17 15:44 45.523752 -119.338671 123 37060ft 484kts
09-Dec-17 15:45 45.454145 -119.178248 123 37040ft 485kts
09-Dec-17 15:46 45.382989 -119.015219 123 36682ft 492kts
09-Dec-17 15:47 45.310251 -118.849657 122 35648ft 504kts
09-Dec-17 15:48 45.235503 -118.680259 122 34613ft 511kts
09-Dec-17 15:49 45.160347 -118.511027 122 33673ft 512kts
09-Dec-17 15:50 45.088578 -118.350339 122 32645ft 471kts
09-Dec-17 15:51 45.022654 -118.203545 123 31629ft 455kts
09-Dec-17 15:52 44.956133 -118.056222 124 30584ft 445kts
09-Dec-17 15:53 44.891724 -117.914391 124 29561ft 439kts
09-Dec-17 15:54 44.816160 -117.786401 148 28496ft 428kts
09-Dec-17 15:55 44.718738 -117.698353 149 27183ft 430kts
09-Dec-17 15:56 44.619524 -117.608304 149 25844ft 428kts
09-Dec-17 15:57 44.520938 -117.519187 149 24508ft 424kts
09-Dec-17 15:58 44.431391 -117.438172 149 22691ft 358kts
09-Dec-17 15:59 44.353848 -117.367904 149 20650ft 318kts
09-Dec-17 16:00 44.286226 -117.307083 150 18660ft 290kts
09-Dec-17 16:01 44.218584 -117.253408 146 16596ft 277kts
09-Dec-17 16:02 44.166378 -117.188702 139 15776ft 240kts
09-Dec-17 16:03 44.118524 -117.126364 138 14588ft 236kts
09-Dec-17 16:04 44.071442 -117.064796 138 13406ft 254kts
09-Dec-17 16:05 44.019137 -116.996578 138 12700ft 262kts
09-Dec-17 16:06 43.967614 -116.926645 126 12203ft 263kts
09-Dec-17 16:07 43.927407 -116.845727 122 10891ft 255kts
09-Dec-17 16:08 43.889484 -116.767470 122 9536ft 250kts
09-Dec-17 16:09 43.851434 -116.689184 122 8152ft 246kts
09-Dec-17 16:10 43.799715 -116.613598 140 7429ft 285kts
09-Dec-17 16:11 43.744449 -116.554455 140 6277ft 265kts
09-Dec-17 16:12 43.689972 -116.496581 140 5576ft 243kts
09-Dec-17 16:13 43.639337 -116.438976 120 5030ft 229kts
09-Dec-17 16:13 43.615899 -116.376895 114 4661ft 225kts
09-Dec-17 16:15 43.588830 -116.297487 117 3763ft 153kts
09-Dec-17 16:15 43.576422 -116.260561 118 3135ft 130kts
09-Dec-17 16:16 43.564218 -116.225542 114 2847ft 49kts
09-Dec-17 16:18 43.561940 -116.222679 113 2848ft 0kts
09-Dec-17 16:18 43.561905 -116.222738 324 2848ft 5kts
09-Dec-17 16:19 43.563487 -116.227196 297 2844ft 15kts
09-Dec-17 16:20 43.564726 -116.230792 295 2839ft 8kts
09-Dec-17 16:21 43.564818 -116.234613 266 2832ft 11kts
09-Dec-17 16:22 43.563710 -116.236992 137 2825ft 7kts
09-Dec-17 16:23 43.563476 -116.235732 83 2827ft 0kts
09-Dec-17 16:24 43.563476 -116.235732 83 2827ft 0kts

Navigation Log

Ident Type
Flight plan parsing failed, navigation log unavailable